KHZD

Carroll County Airport

Huntingdon, Tennessee, USA
METAR KHZD 230035Z AUTO 00000KT 10SM CLR 10/07 A3019 RMK A01
Observed Flight Rules
Oct-23 @ 00:35 UTC (27 minutes ago) Visual Flight Rules
Visibility Clouds
10 miles
  • Clear skies
Temperatures Readings
Current 10°C / 50°F
Dewpoint 7°C / 45°F
Humidity 82%
Altimeter 30.19" Hg
Pressure 1022 hPa
Elevation 151
METAR KHZD 230035Z AUTO 00000KT 10SM CLR 10/07 A3019 RMK A01
Observed Flight Rules
Oct-23 @ 00:35 UTC
(27 minutes ago)
VFR
Clouds
  • Clear skies
Temperature Dewpoint
10°C / 50°F 7°C / 45°F
Humidity Altimeter Pressure
82% 30.19" Hg 1022 hPa